Stations météo

Publicité
Mont Aigoual, France (7560): Température de l'air & dewpoint: 16.07.2019 17:00:00 - 22.07.2019 17:00:00 (CEST)Mont Aigoual, France (7560): Vitesse du vent & gusts: 16.07.2019 17:00:00 - 22.07.2019 17:00:00 (CEST)Mont Aigoual, France (7560): Direction du vent: 16.07.2019 17:00:00 - 22.07.2019 17:00:00 (CEST)Mont Aigoual, France (7560): visibility: 16.07.2019 17:00:00 - 22.07.2019 17:00:00 (CEST)Mont Aigoual, France (7560): Quantités de précipitations: 16.07.2019 17:00:00 - 22.07.2019 17:00:00 (CEST)
Date & Time tt [°C] td [°C] ff [km/h] ff [knt] fx [km/h] fx [knt] dd vv [km] rr [mm]
22.07.2019 17:00:00 24,3 15,8 16 9 29 16 S 20 0,0
22.07.2019 16:00:00 24,6 16,1 16 9 29 15 S 20 0,0
22.07.2019 15:00:00 24,2 15,7 16 9 29 16 SSW 20 0,0
22.07.2019 14:00:00 23,8 16,1 8 4 22 12 SSE 18 0,0
22.07.2019 13:00:00 23,5 16,8 9 5 20 11 SSE 20 0,0
22.07.2019 12:00:00 22,6 17,1 4 2 15 8 S 19 0,0
22.07.2019 11:00:00 21,9 16,8 4 2 13 7 S 18 0,0
22.07.2019 10:00:00 20,7 14,6 5 3 16 9 N 20 0,0
22.07.2019 09:00:00 19,8 13,7 8 5 17 9 W 20 0,0
22.07.2019 08:00:00 18,4 15,5 16 8 23 12 NNW 20 0,0
22.07.2019 07:00:00 17,8 14,9 19 10 21 11 WNW 20 0,0
22.07.2019 06:00:00 17,3 14,9 13 7 17 9 NW 20 0,0
22.07.2019 05:00:00 17,6 15,0 8 4 11 6 NW 20 0,0
22.07.2019 04:00:00 18,0 14,9 5 3 9 5 N 20 0,0
22.07.2019 03:00:00 18,2 14,9 5 3 15 8 SSW 20 0,0
22.07.2019 02:00:00 18,2 14,9 8 4 18 10 NW 20 0,0
22.07.2019 01:00:00 18,2 15,1 14 7 27 15 NW 20 0,0
22.07.2019 00:00:00 17,9 15,2 21 11 27 15 NW 20 0,0
21.07.2019 23:00:00 18,2 15,6 24 13 27 15 NW 20 0,0
21.07.2019 22:00:00 18,8 15,5 23 12 32 18 NW 20 0,0
21.07.2019 21:00:00 19,8 15,2 16 9 20 11 SW 20 0,0
21.07.2019 20:00:00 21,4 15,5 7 4 18 10 S 20 0,0
21.07.2019 19:00:00 21,8 15,6 13 7 26 14 S 20 0,0
21.07.2019 18:00:00 22,1 15,2 18 10 34 19 S 20 0,0
21.07.2019 17:00:00 22,4 15,7 17 9 30 16 S 18 0,0
21.07.2019 16:00:00 22,1 15,4 14 8 23 12 S 20 0,0
21.07.2019 15:00:00 22,2 15,5 13 7 27 15 S 19 0,0
21.07.2019 14:00:00 20,9 15,2 10 5 28 15 SSE 20 0,0
21.07.2019 13:00:00 19,5 15,6 11 6 23 12 S 20 0,0
21.07.2019 12:00:00 18,0 15,1 7 4 26 14 E 19 0,0
21.07.2019 11:00:00 16,4 14,2 15 8 22 12 NNE 18 0,0
21.07.2019 10:00:00 17,0 15,0 6 4 19 10 E 18 0,0
21.07.2019 09:00:00 15,3 14,0 9 5 24 13 N 15 0,0
21.07.2019 08:00:00 15,7 13,9 18 10 23 12 N 17 0,0
21.07.2019 07:00:00 15,2 13,6 7 4 12 6 NNE 15 0,0
21.07.2019 06:00:00 14,9 13,8 9 5 13 7 NE 9 0,2
21.07.2019 05:00:00 15,1 13,8 2 1 18 10 NW 13 0,0
21.07.2019 04:00:00 15,2 13,9 6 3 16 9 W 12 0,0
21.07.2019 03:00:00 14,9 14,1 15 8 29 16 W 7 0,0
21.07.2019 02:00:00 14,7 13,2 24 13 39 21 WSW 15 0,0
21.07.2019 01:00:00 14,7 9,7 34 18 45 25 SSW 20 0,0
21.07.2019 00:00:00 14,7 10,3 39 21 47 26 SSW 20 0,0
20.07.2019 23:00:00 14,7 10,1 38 20 50 27 SSW 20 0,0
20.07.2019 22:00:00 15,2 11,2 37 20 51 28 S 20 0,0
20.07.2019 21:00:00 15,1 12,0 37 20 44 24 S 20 0,0
20.07.2019 20:00:00 16,6 12,5 29 16 46 25 S 20 0,0
20.07.2019 19:00:00 17,1 13,0 34 18 52 28 S 20 0,0
20.07.2019 18:00:00 17,4 13,1 32 17 51 27 S 20 0,0
20.07.2019 17:00:00 17,0 13,3 37 20 60 33 S 20 0,0
20.07.2019 16:00:00 16,4 13,7 38 21 55 30 S 18 0,0
20.07.2019 15:00:00 16,3 13,0 35 19 49 26 S 20 0,0
20.07.2019 14:00:00 15,7 13,2 36 20 52 28 S 20 0,0
20.07.2019 13:00:00 14,3 11,3 30 16 46 25 S 19 0,0
20.07.2019 12:00:00 13,9 11,8 29 16 45 24 S 19 0,0
20.07.2019 11:00:00 13,4 12,8 30 16 43 23 S 0,9 0,2
20.07.2019 10:00:00 14,4 10,8 22 12 54 29 NNW 16 2,0
20.07.2019 09:00:00 12,8 12,5 34 18 73 39 W 7 0,0
20.07.2019 08:00:00 12,8 11,5 39 21 61 33 S 17 0,0
20.07.2019 07:00:00 12,5 11,7 36 19 45 25 S 8 0,0
20.07.2019 06:00:00 13,2 11,8 38 20 50 27 S 13 0,0
20.07.2019 05:00:00 13,9 10,5 34 18 56 31 S 20 0,0
20.07.2019 04:00:00 13,8 11,0 35 19 51 27 S 20 0,0
20.07.2019 03:00:00 14,5 8,4 35 19 56 30 S 20 0,0
20.07.2019 02:00:00 15,6 4,6 39 21 54 29 S 20 0,0
20.07.2019 01:00:00 15,7 6,9 31 17 40 21 S 20 0,0
20.07.2019 00:00:00 16,1 7,0 30 16 36 20 S 20 0,0
19.07.2019 23:00:00 16,3 8,8 22 12 31 17 S 20 0,0
19.07.2019 22:00:00 17,0 9,4 13 7 23 13 S 20 0,0
19.07.2019 21:00:00 17,0 9,9 18 10 29 16 SSE 20 0,0
19.07.2019 20:00:00 18,8 10,1 21 12 37 20 S 20 0,0
19.07.2019 19:00:00 19,9 10,3 22 12 39 21 S 20 0,0
19.07.2019 18:00:00 21,2 8,5 19 10 42 23 S 20 0,0
19.07.2019 17:00:00 20,9 8,8 17 9 44 24 S 20 0,0
19.07.2019 16:00:00 20,4 9,3 20 11 37 20 S 20 0,0
19.07.2019 15:00:00 20,0 10,1 18 10 44 24 S 20 0,0
19.07.2019 14:00:00 19,7 10,7 17 9 35 19 S 20 0,0
19.07.2019 13:00:00 17,8 9,2 14 8 34 18 S 20 0,0
19.07.2019 12:00:00 17,4 9,6 13 7 24 13 S 20 0,0
19.07.2019 11:00:00 16,0 9,0 4 2 11 6 N 20 0,0
19.07.2019 10:00:00 15,0 8,9 4 2 22 12 ENE 19 0,0
19.07.2019 09:00:00 13,2 7,0 19 10 31 17 NW 20 0,0
19.07.2019 08:00:00 10,8 7,5 30 16 37 20 WNW 20 0,0
19.07.2019 07:00:00 10,6 7,5 33 18 41 22 NW 20 0,0
19.07.2019 06:00:00 9,8 8,1 36 20 47 26 NW 20 0,0
19.07.2019 05:00:00 9,8 8,4 42 23 48 26 NW 20 0,0
19.07.2019 04:00:00 9,9 8,2 40 22 47 25 WNW 20 0,0
19.07.2019 03:00:00 10,1 7,5 38 20 44 24 NW 20 0,0
19.07.2019 02:00:00 10,4 7,5 37 20 45 25 WNW 20 0,0
19.07.2019 01:00:00 10,3 7,7 37 20 43 23 WNW 20 0,0
19.07.2019 00:00:00 10,4 7,8 39 21 50 27 WNW 20 0,0
18.07.2019 23:00:00 10,7 7,8 42 23 57 31 WNW 20 0,0
18.07.2019 22:00:00 11,3 7,6 43 23 54 29 WNW 20 0,0
18.07.2019 21:00:00 12,6 7,3 44 24 58 31 WNW 20 0,0
18.07.2019 20:00:00 13,9 6,3 44 24 58 31 NW 20 0,0
18.07.2019 19:00:00 14,4 6,0 40 21 58 31 NW 20 0,0
18.07.2019 18:00:00 15,4 5,3 39 21 61 33 NW 20 0,0
18.07.2019 17:00:00 16,0 5,9 36 20 53 29 NW 20 0,0
18.07.2019 16:00:00 16,1 5,1 29 16 50 27 NW 20 0,0
18.07.2019 15:00:00 15,0 5,5 32 17 45 25 NW 20 0,0
18.07.2019 14:00:00 14,2 7,0 30 16 57 31 NW 20 0,0
18.07.2019 13:00:00 13,5 3,3 38 21 50 27 NW 20 0,0
18.07.2019 12:00:00 13,0 6,8 39 21 51 28 NW 20 0,0
18.07.2019 11:00:00 12,2 7,7 39 21 55 30 NW 20 0,0
18.07.2019 10:00:00 12,0 8,3 41 22 52 28 NW 20 0,0
18.07.2019 09:00:00 11,7 7,6 34 18 50 27 NW 20 0,0
18.07.2019 08:00:00 11,7 8,9 32 17 51 27 NNW 20 0,0
18.07.2019 07:00:00 11,4 8,4 37 20 49 26 NNW 20 0,0
18.07.2019 06:00:00 11,8 7,9 39 21 50 27 NNW 20 0,0
18.07.2019 05:00:00 11,9 8,0 41 22 57 31 NNW 20 0,0
18.07.2019 04:00:00 12,3 7,6 42 23 54 29 NNW 20 0,0
18.07.2019 03:00:00 12,2 7,7 47 26 62 33 NNW 20 0,0
18.07.2019 02:00:00 12,9 7,3 48 26 74 40 NNW 20 0,0
18.07.2019 01:00:00 13,8 6,9 57 31 79 42 NNW 20 0,0
18.07.2019 00:00:00 14,1 6,4 48 26 68 37 NNW 20 0,0
17.07.2019 23:00:00 14,4 5,5 45 24 67 36 NW 20 0,0
17.07.2019 22:00:00 15,1 5,3 48 26 67 36 NW 20 0,0
17.07.2019 21:00:00 16,3 5,8 46 25 69 38 NW 20 0,0
17.07.2019 20:00:00 17,5 5,4 42 23 69 37 NW 20 0,0
17.07.2019 19:00:00 18,4 6,9 40 21 61 33 NW 20 0,0
17.07.2019 18:00:00 18,6 7,4 32 18 47 25 WNW 20 0,0
17.07.2019 17:00:00 18,0 7,1 24 13 37 20 NW 20 0,0
17.07.2019 16:00:00 18,8 7,2 19 11 38 20 NW 20 0,0
17.07.2019 15:00:00 18,7 6,5 17 9 39 21 NNW 20 0,0
17.07.2019 14:00:00 18,0 8,0 11 6 27 15 NNW 20 0,0
17.07.2019 13:00:00 17,2 6,4 14 8 27 15 WNW 20 0,0
17.07.2019 12:00:00 16,5 7,4 9 5 26 14 NNW 20 0,0
17.07.2019 11:00:00 15,3 8,1 16 8 31 17 NW 20 0,0
17.07.2019 10:00:00 15,0 8,2 16 9 30 16 NW 20 0,0
17.07.2019 09:00:00 14,7 8,2 16 9 26 14 NW 20 0,0
17.07.2019 08:00:00 14,2 6,5 11 6 23 12 SSW 20 0,0
17.07.2019 07:00:00 13,8 4,9 10 6 15 8 S 20 0,0
17.07.2019 06:00:00 13,6 5,2 8 4 18 10 S 20 0,0
17.07.2019 05:00:00 13,7 5,1 11 6 17 9 ESE 20 0,0
17.07.2019 04:00:00 13,8 6,4 9 5 17 9 ESE 20 0,0
17.07.2019 03:00:00 13,9 7,2 6 3 14 8 SSE 20 0,0
17.07.2019 02:00:00 13,6 6,5 14 8 28 15 NW 20 0,0
17.07.2019 01:00:00 13,4 6,5 25 13 35 19 NW 20 0,0
17.07.2019 00:00:00 14,0 7,5 29 16 40 22 NW 20 0,0
16.07.2019 23:00:00 14,5 8,2 29 16 37 20 NW 20 0,0
16.07.2019 22:00:00 15,1 8,3 30 16 40 21 NW 20 0,0
16.07.2019 21:00:00 16,5 8,2 31 17 41 22 NW 20 0,0
16.07.2019 20:00:00 18,3 8,8 24 13 41 22 NW 20 0,0
16.07.2019 19:00:00 19,6 8,9 11 6 23 12 NNW 20 0,0
16.07.2019 18:00:00 19,7 7,4 10 5 20 11 S 20 0,0
16.07.2019 17:00:00 19,9 8,2 5 3 22 12 SE 20 0,0

tt = Température de l'air
td = dewpoint
ff = Vitesse du vent
fx = gusts
dd = Direction du vent
vv = visibility
rr = Quantités de précipitations

stations d'obs. à proximité